createdAt,value
2022-09-28T00:01:53.163Z,9.21
2022-09-28T00:05:30.996Z,9.22
2022-09-28T00:09:06.627Z,9.20
2022-09-28T00:13:02.502Z,9.14
2022-09-28T00:16:27.448Z,9.05
2022-09-28T00:20:19.143Z,8.97
2022-09-28T00:23:59.029Z,8.93
2022-09-28T00:27:39.685Z,8.91
2022-09-28T00:31:01.003Z,8.91
2022-09-28T00:34:42.475Z,8.89
2022-09-28T00:38:32.656Z,8.82
2022-09-28T00:41:54.632Z,8.75
2022-09-28T00:45:29.937Z,8.64
2022-09-28T00:49:14.539Z,8.53
2022-09-28T00:53:15.985Z,8.49
2022-09-28T00:56:40.551Z,8.48
2022-09-28T01:00:14.842Z,8.49
2022-09-28T01:04:10.126Z,8.55
2022-09-28T01:07:50.163Z,8.56
2022-09-28T01:11:32.310Z,8.58
2022-09-28T01:14:53.074Z,8.52
2022-09-28T01:19:19.130Z,8.43
2022-09-28T01:22:42.946Z,8.36
2022-09-28T01:26:22.608Z,8.28
2022-09-28T01:30:07.735Z,8.24
2022-09-28T01:33:38.653Z,8.22
2022-09-28T01:37:14.288Z,8.26
2022-09-28T01:40:45.595Z,8.31
2022-09-28T01:44:24.037Z,8.38
2022-09-28T01:48:04.072Z,8.41
2022-09-28T01:51:47.577Z,8.41
2022-09-28T01:55:34.873Z,8.37
2022-09-28T01:59:21.755Z,8.32
2022-09-28T02:03:01.303Z,8.32
2022-09-28T02:06:41.292Z,8.35
2022-09-28T02:10:16.111Z,8.35
2022-09-28T02:14:09.798Z,8.35
2022-09-28T02:17:50.054Z,8.33
2022-09-28T02:21:39.010Z,8.31
2022-09-28T02:25:28.172Z,8.28
2022-09-28T02:28:49.061Z,8.23
2022-09-28T02:32:28.952Z,8.20
2022-09-28T02:36:03.833Z,8.26
2022-09-28T02:39:58.181Z,8.35
2022-09-28T02:43:31.202Z,8.38
2022-09-28T02:47:30.109Z,8.29
2022-09-28T02:51:09.166Z,8.27
2022-09-28T02:55:01.113Z,8.26
2022-09-28T02:59:03.611Z,8.28
2022-09-28T03:03:17.115Z,8.32
2022-09-28T03:07:00.670Z,8.34
2022-09-28T03:10:49.213Z,8.32
2022-09-28T03:14:11.078Z,8.26
2022-09-28T03:17:46.688Z,8.19
2022-09-28T03:21:42.062Z,8.10
2022-09-28T03:25:21.878Z,8.08
2022-09-28T03:28:45.769Z,8.05
2022-09-28T03:32:19.715Z,8.03
2022-09-28T03:35:56.340Z,7.94
2022-09-28T03:39:51.942Z,7.82
2022-09-28T03:43:12.913Z,7.72
2022-09-28T03:46:49.613Z,7.66
2022-09-28T03:50:26.387Z,7.63
2022-09-28T03:54:03.629Z,7.60
2022-09-28T03:57:40.004Z,7.62
2022-09-28T04:01:17.908Z,7.65
2022-09-28T04:04:53.694Z,7.62
2022-09-28T04:08:31.105Z,7.61
2022-09-28T04:12:07.667Z,7.60
2022-09-28T04:16:04.329Z,7.60
2022-09-28T04:19:27.574Z,7.63
2022-09-28T04:23:15.491Z,7.59
2022-09-28T04:27:28.695Z,7.55
2022-09-28T04:30:50.096Z,7.54
2022-09-28T04:34:29.801Z,7.54
2022-09-28T04:38:03.505Z,7.52
2022-09-28T04:41:41.346Z,7.54
2022-09-28T04:45:17.145Z,7.58
2022-09-28T04:48:53.779Z,7.63
2022-09-28T04:52:36.979Z,7.66
2022-09-28T04:56:29.899Z,7.65
2022-09-28T04:59:50.582Z,7.70
2022-09-28T05:03:28.376Z,7.69
2022-09-28T05:07:09.737Z,7.68
2022-09-28T05:10:47.172Z,7.71
2022-09-28T05:14:23.044Z,7.68
2022-09-28T05:18:18.945Z,7.66
2022-09-28T05:21:46.981Z,7.72
2022-09-28T05:25:21.870Z,7.81
2022-09-28T05:29:15.180Z,7.79
2022-09-28T05:32:52.715Z,7.76
2022-09-28T05:36:33.581Z,7.68
2022-09-28T05:40:29.269Z,7.73
2022-09-28T05:44:09.269Z,7.74
2022-09-28T05:47:48.941Z,7.69
2022-09-28T05:51:31.476Z,7.72
2022-09-28T05:54:52.528Z,7.77
2022-09-28T05:58:29.542Z,7.80
2022-09-28T06:02:07.270Z,7.84
2022-09-28T06:06:02.170Z,7.89
2022-09-28T06:09:26.067Z,7.98
2022-09-28T06:13:02.091Z,8.07
2022-09-28T06:16:56.815Z,8.08
2022-09-28T06:20:17.373Z,8.03
2022-09-28T06:23:54.196Z,7.97
2022-09-28T06:28:00.245Z,7.94
2022-09-28T06:31:40.045Z,7.95
2022-09-28T06:35:00.641Z,8.04
2022-09-28T06:38:56.796Z,8.16
2022-09-28T06:42:18.757Z,8.21
2022-09-28T06:46:15.697Z,8.24
2022-09-28T06:49:55.837Z,8.26
2022-09-28T06:53:55.948Z,8.31
2022-09-28T06:58:04.969Z,8.28
2022-09-28T07:01:26.520Z,8.30
2022-09-28T07:05:13.876Z,8.31
2022-09-28T07:08:58.189Z,8.28
2022-09-28T07:12:53.948Z,8.27
2022-09-28T07:16:32.378Z,8.31
2022-09-28T07:20:18.951Z,8.33
2022-09-28T07:23:51.970Z,8.35
2022-09-28T07:27:20.076Z,8.36
2022-09-28T07:31:09.548Z,8.38
2022-09-28T07:34:50.204Z,8.46
2022-09-28T07:38:23.845Z,8.51
2022-09-28T07:42:03.013Z,8.59
2022-09-28T07:45:38.284Z,8.57
2022-09-28T07:49:16.647Z,8.65
2022-09-28T07:53:25.815Z,8.75
2022-09-28T07:57:01.716Z,8.74
2022-09-28T08:01:00.318Z,8.77
2022-09-28T08:04:21.598Z,8.77
2022-09-28T08:07:59.809Z,8.83
2022-09-28T08:11:35.239Z,8.92
2022-09-28T08:15:15.860Z,9.09
2022-09-28T08:18:57.720Z,9.18
2022-09-28T08:22:34.416Z,9.25
2022-09-28T08:26:30.088Z,9.40
2022-09-28T08:29:51.502Z,9.60
2022-09-28T08:33:31.635Z,9.61
2022-09-28T08:37:12.572Z,9.50
2022-09-28T08:41:16.068Z,9.41
2022-09-28T08:45:19.675Z,9.33
2022-09-28T08:49:30.873Z,9.24
2022-09-28T08:53:34.478Z,9.21
2022-09-28T08:57:12.495Z,9.17
2022-09-28T09:00:42.218Z,9.15
2022-09-28T09:04:16.244Z,9.21
2022-09-28T09:08:14.447Z,9.30
2022-09-28T09:11:48.936Z,9.40
2022-09-28T09:15:47.188Z,9.48
2022-09-28T09:19:40.171Z,9.75
2022-09-28T09:23:13.650Z,10.19
2022-09-28T09:27:32.071Z,10.62
2022-09-28T09:31:38.348Z,11.08
2022-09-28T09:35:49.737Z,11.41
2022-09-28T09:40:03.217Z,11.59
2022-09-28T09:44:38.339Z,11.67
2022-09-28T09:48:49.061Z,11.47
2022-09-28T09:52:18.292Z,11.19
2022-09-28T09:56:19.656Z,11.11
2022-09-28T10:00:03.593Z,11.01
2022-09-28T10:03:46.238Z,11.00
2022-09-28T10:07:48.843Z,11.04
2022-09-28T10:11:36.363Z,11.21
2022-09-28T10:14:59.057Z,11.25
2022-09-28T10:18:36.754Z,11.27
2022-09-28T10:22:22.695Z,11.38
2022-09-28T10:26:02.376Z,11.65
2022-09-28T10:29:39.043Z,11.85
2022-09-28T10:33:29.205Z,11.86
2022-09-28T10:36:59.941Z,11.72
2022-09-28T10:40:43.884Z,11.64
2022-09-28T10:44:25.441Z,11.66
2022-09-28T10:48:13.278Z,11.92
2022-09-28T10:51:44.681Z,12.25
2022-09-28T10:55:32.536Z,12.64
2022-09-28T10:58:54.191Z,12.83
2022-09-28T11:02:36.345Z,12.96
2022-09-28T11:06:08.743Z,13.17
2022-09-28T11:09:48.920Z,13.33
2022-09-28T11:13:21.161Z,13.58
2022-09-28T11:17:28.956Z,13.67
2022-09-28T11:21:14.826Z,13.88
2022-09-28T11:24:44.079Z,13.82
2022-09-28T11:28:40.684Z,13.61
2022-09-28T11:32:30.147Z,13.64
2022-09-28T11:36:10.484Z,14.05
2022-09-28T11:40:32.952Z,14.22
2022-09-28T11:44:33.405Z,14.39
2022-09-28T11:48:02.627Z,14.43
2022-09-28T11:51:41.254Z,14.24
2022-09-28T11:55:36.346Z,14.00
2022-09-28T11:59:26.964Z,13.94
2022-09-28T12:03:04.352Z,14.26
2022-09-28T12:06:37.615Z,14.77
2022-09-28T12:10:45.445Z,15.18
2022-09-28T12:14:19.219Z,15.42
2022-09-28T12:17:48.708Z,15.64
2022-09-28T12:21:39.332Z,15.91
2022-09-28T12:25:03.894Z,15.74
2022-09-28T12:28:56.904Z,15.52
2022-09-28T12:32:39.503Z,15.51
2022-09-28T12:36:06.844Z,15.85
2022-09-28T12:39:56.549Z,15.87
2022-09-28T12:43:53.966Z,15.88
2022-09-28T12:47:29.832Z,15.69
2022-09-28T12:51:00.566Z,15.76
2022-09-28T12:55:13.892Z,15.91
2022-09-28T12:59:03.036Z,15.63
2022-09-28T13:02:43.742Z,15.58
2022-09-28T13:06:36.786Z,15.58
2022-09-28T13:10:07.004Z,15.30
2022-09-28T13:14:03.342Z,15.07
2022-09-28T13:18:13.731Z,14.84
2022-09-28T13:21:48.163Z,14.66
2022-09-28T13:25:20.429Z,14.56
2022-09-28T13:28:51.361Z,14.54
2022-09-28T13:32:26.860Z,14.45
2022-09-28T13:36:05.653Z,14.38
2022-09-28T13:39:44.355Z,14.29
2022-09-28T13:43:29.756Z,14.19
2022-09-28T13:47:20.523Z,14.18
2022-09-28T13:50:48.482Z,14.15
2022-09-28T13:55:00.037Z,14.00
2022-09-28T13:58:36.533Z,13.88
2022-09-28T14:02:55.359Z,13.69
2022-09-28T14:06:23.064Z,13.56
2022-09-28T14:10:16.970Z,13.48
2022-09-28T14:13:43.866Z,13.39
2022-09-28T14:17:53.973Z,13.32
2022-09-28T14:21:20.455Z,13.21
2022-09-28T14:25:17.279Z,13.11
2022-09-28T14:28:58.750Z,13.03
2022-09-28T14:32:24.947Z,13.07
2022-09-28T14:36:02.146Z,13.10
2022-09-28T14:40:11.620Z,13.10
2022-09-28T14:44:01.824Z,13.11
2022-09-28T14:47:33.580Z,12.95
2022-09-28T14:51:24.877Z,12.71
2022-09-28T14:55:16.154Z,12.56
2022-09-28T14:58:37.565Z,12.46
2022-09-28T15:02:22.441Z,12.40
2022-09-28T15:05:50.158Z,12.37
2022-09-28T15:09:32.646Z,12.32
2022-09-28T15:13:28.249Z,12.34
2022-09-28T15:16:48.795Z,12.36
2022-09-28T15:20:48.917Z,12.32
2022-09-28T15:24:33.594Z,12.24
2022-09-28T15:27:57.554Z,12.19
2022-09-28T15:31:35.913Z,12.13
2022-09-28T15:35:28.082Z,11.96
2022-09-28T15:39:28.114Z,11.83
2022-09-28T15:42:49.616Z,11.77
2022-09-28T15:46:28.811Z,11.77
2022-09-28T15:50:06.630Z,11.74
2022-09-28T15:54:19.750Z,11.66
2022-09-28T15:57:40.883Z,11.52
2022-09-28T16:01:39.114Z,11.48
2022-09-28T16:05:38.538Z,11.43
2022-09-28T16:08:59.006Z,11.41
2022-09-28T16:12:58.750Z,11.36
2022-09-28T16:16:27.901Z,11.28
2022-09-28T16:19:57.072Z,11.22
2022-09-28T16:23:34.350Z,11.19
2022-09-28T16:27:25.935Z,11.16
2022-09-28T16:30:59.555Z,11.17
2022-09-28T16:34:42.666Z,11.12
2022-09-28T16:38:12.066Z,11.13
2022-09-28T16:41:44.170Z,11.15
2022-09-28T16:45:20.148Z,11.18
2022-09-28T16:49:18.009Z,11.23
2022-09-28T16:52:59.815Z,11.21
2022-09-28T16:56:21.659Z,11.13
2022-09-28T16:59:58.260Z,11.03
2022-09-28T17:03:35.606Z,10.98
2022-09-28T17:07:31.242Z,11.03
2022-09-28T17:14:38.695Z,11.11
2022-09-28T17:18:17.068Z,11.13
2022-09-28T17:21:52.919Z,10.98
2022-09-28T17:25:48.193Z,10.70
2022-09-28T17:29:16.372Z,10.46
2022-09-28T17:32:51.658Z,10.35
2022-09-28T17:36:26.738Z,10.31
2022-09-28T17:40:02.103Z,10.35
2022-09-28T17:43:41.329Z,10.33
2022-09-28T17:47:15.900Z,10.31
2022-09-28T17:50:52.332Z,10.21
2022-09-28T17:54:29.057Z,10.11
2022-09-28T17:58:24.127Z,10.09
2022-09-28T18:01:48.560Z,10.07
2022-09-28T18:05:43.295Z,10.00
2022-09-28T18:09:05.370Z,10.02
2022-09-28T18:13:01.547Z,10.03
2022-09-28T18:16:23.185Z,10.02
2022-09-28T18:19:59.186Z,10.00
2022-09-28T18:23:39.318Z,9.96
2022-09-28T18:27:33.980Z,9.97
2022-09-28T18:30:54.392Z,10.01
2022-09-28T18:34:31.135Z,10.00
2022-09-28T18:38:11.388Z,10.00
2022-09-28T18:41:47.271Z,9.95
2022-09-28T18:45:21.692Z,9.93
2022-09-28T18:48:58.446Z,9.87
2022-09-28T18:52:54.270Z,9.83
2022-09-28T18:56:21.224Z,9.81
2022-09-28T19:00:12.460Z,9.76
2022-09-28T19:03:33.227Z,9.72
2022-09-28T19:07:10.288Z,9.73
2022-09-28T19:10:48.741Z,9.80
2022-09-28T19:14:42.318Z,9.89
2022-09-28T19:18:04.074Z,10.02
2022-09-28T19:21:41.203Z,10.07
2022-09-28T19:25:17.063Z,10.10
2022-09-28T19:28:54.101Z,10.05
2022-09-28T19:32:30.022Z,9.95
2022-09-28T19:36:09.574Z,9.82
2022-09-28T19:39:43.616Z,9.78
2022-09-28T19:43:21.379Z,9.76
2022-09-28T19:46:59.669Z,9.67
2022-09-28T19:50:34.012Z,9.61
2022-09-28T19:54:11.623Z,9.60
2022-09-28T19:57:48.217Z,9.60
2022-09-28T20:01:43.407Z,9.57
2022-09-28T20:05:04.312Z,9.58
2022-09-28T20:08:42.673Z,9.58
2022-09-28T20:12:36.497Z,9.62
2022-09-28T20:15:57.389Z,9.67
2022-09-28T20:19:52.977Z,9.70
2022-09-28T20:23:13.855Z,9.78
2022-09-28T20:26:53.736Z,9.81
2022-09-28T20:30:46.408Z,9.85
2022-09-28T20:34:07.593Z,9.88
2022-09-28T20:37:44.400Z,9.91
2022-09-28T20:41:23.276Z,9.90
2022-09-28T20:44:58.243Z,9.90
2022-09-28T20:48:55.236Z,9.88
2022-09-28T20:52:34.703Z,9.87
2022-09-28T20:56:03.022Z,9.93
2022-09-28T20:59:54.658Z,9.89
2022-09-28T21:03:18.145Z,9.86
2022-09-28T21:06:53.295Z,9.88
2022-09-28T21:10:30.469Z,9.95
2022-09-28T21:14:26.186Z,9.98
2022-09-28T21:17:46.833Z,10.02
2022-09-28T21:21:24.946Z,10.05
2022-09-28T21:25:00.873Z,10.03
2022-09-28T21:28:38.007Z,10.03
2022-09-28T21:32:34.655Z,10.02
2022-09-28T21:35:55.058Z,10.03
2022-09-28T21:39:31.932Z,10.08
2022-09-28T21:43:08.737Z,10.07
2022-09-28T21:47:04.370Z,10.03
2022-09-28T21:50:26.670Z,9.98
2022-09-28T21:54:02.226Z,9.89
2022-09-28T21:57:38.770Z,9.86
2022-09-28T22:01:20.041Z,9.87
2022-09-28T22:04:52.454Z,9.88
2022-09-28T22:08:29.207Z,9.89
2022-09-28T22:12:06.161Z,9.89
2022-09-28T22:16:02.351Z,9.86
2022-09-28T22:19:23.201Z,9.84
2022-09-28T22:23:20.742Z,9.81
2022-09-28T22:26:42.263Z,9.84
2022-09-28T22:30:19.337Z,9.80
2022-09-28T22:33:56.122Z,9.78
2022-09-28T22:37:33.591Z,9.70
2022-09-28T22:41:10.600Z,9.55
2022-09-28T22:44:45.429Z,9.42
2022-09-28T22:48:23.665Z,9.31
2022-09-28T22:51:59.508Z,9.26
2022-09-28T22:55:35.835Z,9.23
2022-09-28T22:59:12.678Z,9.17
2022-09-28T23:02:49.440Z,9.14
2022-09-28T23:06:45.140Z,9.11
2022-09-28T23:10:06.876Z,9.13
2022-09-28T23:13:43.838Z,9.19
2022-09-28T23:17:20.031Z,9.24
2022-09-28T23:21:18.933Z,9.33
2022-09-28T23:24:39.499Z,9.41
2022-09-28T23:28:16.975Z,9.43
2022-09-28T23:31:52.994Z,9.41
2022-09-28T23:35:29.857Z,9.37
2022-09-28T23:39:06.727Z,9.30
2022-09-28T23:42:43.435Z,9.28
2022-09-28T23:46:39.025Z,9.29
2022-09-28T23:50:18.261Z,9.35
2022-09-28T23:53:39.154Z,9.44
2022-09-28T23:57:15.827Z,9.45
